This is the latest recevied weather packets stored in our database for station/object OE6JVE-13. If no packets are shown the sender has not sent any weather packets the latest 1 day(s).
| Time | Temp. | Humidity | Pressure | Rain* | Wind** | Luminosity | Snow |
|---|---|---|---|---|---|---|---|
| 1778019320 | 11.67° C | 78% | 1002.4 hPa | 0 mm | 0 m/s | - | - |
| 1778018727 | 12.22° C | 73% | 1002.5 hPa | 0 mm | 0.45 m/s, 225° | - | - |
| 1778017543 | 12.78° C | 73% | 1002.4 hPa | 0 mm | 0 m/s | - | - |
| 1778016951 | 12.78° C | 72% | 1002.3 hPa | 0 mm | 0 m/s | - | - |
| 1778016359 | 13.33° C | 71% | 1002.4 hPa | 0 mm | 0 m/s | - | - |
| 1778015175 | 13.89° C | 70% | 1002.6 hPa | 0 mm | 1.34 m/s, 249° | - | - |
| 1778014517 | 14.44° C | 67% | 1002.7 hPa | 0 mm | 0 m/s | - | - |
| 1778013925 | 15° C | 66% | 1002.5 hPa | 0 mm | 0.45 m/s, 291° | - | - |
| 1778013333 | 15.56° C | 65% | 1002.7 hPa | 0 mm | 1.34 m/s, 180° | - | - |
| 1778012740 | 15.56° C | 65% | 1002.6 hPa | 0 mm | 2.24 m/s, 205° | - | - |
| 1778012148 | 15° C | 66% | 1002.6 hPa | 0 mm | 2.68 m/s, 245° | - | - |
| 1778011557 | 15° C | 66% | 1002.7 hPa | 0 mm | 2.68 m/s, 270° | - | - |
| 1778010965 | 15° C | 66% | 1002.6 hPa | 0 mm | 0.45 m/s, 296° | - | - |
| 1778010372 | 15.56° C | 64% | 1002.7 hPa | 0 mm | 0.45 m/s, 254° | - | - |
| 1778009780 | 15.56° C | 63% | 1002.7 hPa | 0 mm | 0.89 m/s, 232° | - | - |
| 1778009122 | 16.11° C | 63% | 1002.9 hPa | 0 mm | 1.34 m/s, 176° | - | - |
| 1778008530 | 16.11° C | 62% | 1002.9 hPa | 0 mm | 0.89 m/s, 219° | - | - |
| 1778007938 | 16.11° C | 62% | 1002.8 hPa | 0 mm | 0.45 m/s, 209° | - | - |
| 1778007345 | 16.11° C | 61% | 1002.8 hPa | 0 mm | 0.45 m/s, 180° | - | - |
| 1778006754 | 16.67° C | 61% | 1002.8 hPa | 0 mm | 3.13 m/s, 201° | - | - |
| 1778006162 | 16.11° C | 62% | 1002.9 hPa | 0 mm | 2.68 m/s, 193° | - | - |
| 1778005569 | 16.11° C | 61% | 1002.9 hPa | 0 mm | 1.34 m/s, 237° | - | - |
| 1778004978 | 16.67° C | 60% | 1003 hPa | 0 mm | 2.68 m/s, 159° | - | - |
| 1778004320 | 16.67° C | 60% | 1003 hPa | 0 mm | 2.24 m/s, 180° | - | - |
| 1778003728 | 16.67° C | 60% | 1002.8 hPa | 0 mm | 2.24 m/s, 201° | - | - |
* Rain latest hour (hover to see other rain measurements)
** Current wind speed in m/s (hover to see current wind gust speed)